Accueil
METAR-TAF:

METAR-TAF

Aéroports :

Villacoublay, France

Base aérienne 107 Villacoublay

latitude: 48-46N, longitude: 002-12E, altitude: 177 m

Observation

Le bulletin a été fait il y a 31 minutes, à 20:30 UTC
Vent 4 kt de ouest/sud-ouest
Température 16°C
Humidité 63%
Pression 1014 hPa
Visibilité 10 km ou plus
pas de nuages en-dessous de 1500 mètres et pas de cumulonimbus.

METAR: LFPV 242030Z AUTO 25004KT CAVOK 16/09 Q1014 NOSIG

Heure: 23:01 (21:01 UTC)

Prévision

Le bulletin a été fait il y a 1 heure et 1 minutes, à 20:00 UTC
Prévision valable du 24 à 21 UTC au 25 à 21 UTC
Vent 6 kt de ouest/sud-ouest
Visibilité 10 km ou plus
pas de nuages en-dessous de 1500 mètres et pas de cumulonimbus.
Probabilité 30% :
Temporairement
du 25 à 08 UTC au 25 à 11 UTC
Visibilité: 5000 m
Nuages fragmentés à une hauteur de 1400 ft
pluie faible, bruine

TAF: LFPV 242000Z 2421/2521 25006KT CAVOK PROB30 TEMPO 2508/2511 5000 -RADZ BKN014

Observations et prévisions météorologiques de plus de 4000 aéroports (messages METAR et TAF).

Les stations disponibles sont représentées par des disques jaunes et rouges sur la carte.

Passer la souris dessus pour voir le nom de la station.

Cliquer dessus pour voir les observations et prévisions météorologiques.

Pour changer de carte: cliquez sur les boutons verts avec une croix noire pour zoomer, sur le bouton vert avec un tiret pour effectuer un zoom arrière, ou sur les flèches vertes pour les cartes adjacentes.


METAR-TAF: